createdAt,value
2022-12-17T00:15:28.951Z,-3.60
2022-12-17T00:35:50.157Z,-3.70
2022-12-17T00:56:11.632Z,-3.59
2022-12-17T01:16:33.454Z,-3.53
2022-12-17T01:36:54.789Z,-3.37
2022-12-17T01:57:16.258Z,-3.40
2022-12-17T02:17:37.226Z,-3.35
2022-12-17T02:37:59.764Z,-3.39
2022-12-17T02:58:22.432Z,-3.74
2022-12-17T03:18:43.875Z,-3.97
2022-12-17T03:39:04.926Z,-3.61
2022-12-17T03:59:26.119Z,-3.66
2022-12-17T04:19:49.532Z,-3.78
2022-12-17T04:40:11.113Z,-4.06
2022-12-17T05:00:32.276Z,-4.04
2022-12-17T05:20:56.749Z,-3.80
2022-12-17T05:41:21.225Z,-3.64
2022-12-17T06:01:43.365Z,-3.77
2022-12-17T06:22:04.824Z,-3.69
2022-12-17T06:42:25.981Z,-3.82
2022-12-17T07:02:47.565Z,-4.14
2022-12-17T07:23:08.857Z,-4.41
2022-12-17T07:43:30.484Z,-4.48
2022-12-17T08:03:51.814Z,-4.29
2022-12-17T08:24:13.173Z,-4.21
2022-12-17T08:44:34.517Z,-3.94
2022-12-17T09:04:55.966Z,-3.75
2022-12-17T09:25:17.422Z,-3.55
2022-12-17T09:45:39.048Z,-3.02
2022-12-17T10:06:00.199Z,-3.41
2022-12-17T10:26:22.328Z,-3.10
2022-12-17T10:46:43.885Z,-2.61
2022-12-17T11:07:06.265Z,-2.90
2022-12-17T11:27:29.189Z,-3.00
2022-12-17T11:47:54.799Z,-2.54
2022-12-17T12:08:18.963Z,-2.57
2022-12-17T12:28:40.280Z,-2.99
2022-12-17T12:49:02.047Z,-2.90
2022-12-17T13:09:04.724Z,-2.78
2022-12-17T13:29:08.467Z,-2.91
2022-12-17T13:49:10.964Z,-3.01
2022-12-17T14:09:13.605Z,-2.97
2022-12-17T14:29:16.373Z,-3.01
2022-12-17T14:49:19.098Z,-3.10
2022-12-17T15:09:21.672Z,-3.32
2022-12-17T15:29:25.637Z,-3.36
2022-12-17T15:49:28.023Z,-3.71
2022-12-17T16:09:30.729Z,-3.74
2022-12-17T16:29:33.595Z,-3.69
2022-12-17T16:49:36.070Z,-4.07
2022-12-17T18:51:36.298Z,-4.36
2022-12-17T19:11:43.430Z,-3.73
2022-12-17T19:31:46.876Z,-3.67
2022-12-17T19:51:49.739Z,-3.54
2022-12-17T20:11:52.540Z,-3.77
2022-12-17T20:31:55.560Z,-4.03
2022-12-17T20:51:58.251Z,-4.07
2022-12-17T21:12:00.913Z,-4.05
2022-12-17T21:32:04.267Z,-4.15
2022-12-17T21:52:07.729Z,-3.98
2022-12-17T22:12:32.514Z,-4.52
2022-12-17T22:32:53.916Z,-4.47
2022-12-17T22:52:58.429Z,-4.36
2022-12-17T23:13:01.642Z,-4.40
2022-12-17T23:33:04.159Z,-4.33
2022-12-17T23:53:06.810Z,-4.44
